sensor_id;sensor_type;location;lat;lon;timestamp;temperature;humidity
9118;DHT22;4594;50.994;7.126;2023-11-18T00:01:15;6.70;59.00
9118;DHT22;4594;50.994;7.126;2023-11-18T00:03:41;6.70;59.10
9118;DHT22;4594;50.994;7.126;2023-11-18T00:06:07;6.70;59.20
9118;DHT22;4594;50.994;7.126;2023-11-18T00:08:33;6.70;59.30
9118;DHT22;4594;50.994;7.126;2023-11-18T00:10:59;6.70;59.50
9118;DHT22;4594;50.994;7.126;2023-11-18T00:13:25;6.70;59.60
9118;DHT22;4594;50.994;7.126;2023-11-18T00:15:52;6.70;59.60
9118;DHT22;4594;50.994;7.126;2023-11-18T00:18:17;6.70;59.50
9118;DHT22;4594;50.994;7.126;2023-11-18T00:20:44;6.70;59.40
9118;DHT22;4594;50.994;7.126;2023-11-18T00:23:11;6.70;59.40
9118;DHT22;4594;50.994;7.126;2023-11-18T00:25:36;6.70;59.40
9118;DHT22;4594;50.994;7.126;2023-11-18T00:28:05;6.70;59.40
9118;DHT22;4594;50.994;7.126;2023-11-18T00:30:33;6.70;59.40
9118;DHT22;4594;50.994;7.126;2023-11-18T00:32:59;6.70;59.40
9118;DHT22;4594;50.994;7.126;2023-11-18T00:35:25;6.70;59.30
9118;DHT22;4594;50.994;7.126;2023-11-18T00:37:50;6.70;59.20
9118;DHT22;4594;50.994;7.126;2023-11-18T00:40:16;6.70;59.10
9118;DHT22;4594;50.994;7.126;2023-11-18T00:42:44;6.70;58.90
9118;DHT22;4594;50.994;7.126;2023-11-18T00:45:10;6.70;58.80
9118;DHT22;4594;50.994;7.126;2023-11-18T00:47:38;6.70;58.70
9118;DHT22;4594;50.994;7.126;2023-11-18T00:50:07;6.70;58.50
9118;DHT22;4594;50.994;7.126;2023-11-18T00:52:36;6.60;58.40
9118;DHT22;4594;50.994;7.126;2023-11-18T00:55:07;6.60;58.30
9118;DHT22;4594;50.994;7.126;2023-11-18T00:57:34;6.60;58.10
9118;DHT22;4594;50.994;7.126;2023-11-18T01:00:00;6.60;58.00
9118;DHT22;4594;50.994;7.126;2023-11-18T01:02:26;6.50;57.90
9118;DHT22;4594;50.994;7.126;2023-11-18T01:04:53;6.50;57.80
9118;DHT22;4594;50.994;7.126;2023-11-18T01:07:18;6.50;57.70
9118;DHT22;4594;50.994;7.126;2023-11-18T01:09:44;6.40;57.50
9118;DHT22;4594;50.994;7.126;2023-11-18T01:12:11;6.40;57.40
9118;DHT22;4594;50.994;7.126;2023-11-18T01:14:38;6.40;57.40
9118;DHT22;4594;50.994;7.126;2023-11-18T01:17:05;6.30;57.40
9118;DHT22;4594;50.994;7.126;2023-11-18T01:19:32;6.30;57.50
9118;DHT22;4594;50.994;7.126;2023-11-18T01:21:59;6.30;57.70
9118;DHT22;4594;50.994;7.126;2023-11-18T01:24:25;6.30;57.90
9118;DHT22;4594;50.994;7.126;2023-11-18T01:26:50;6.20;57.90
9118;DHT22;4594;50.994;7.126;2023-11-18T01:29:16;6.20;58.10
9118;DHT22;4594;50.994;7.126;2023-11-18T01:31:42;6.20;58.20
9118;DHT22;4594;50.994;7.126;2023-11-18T01:34:09;6.20;58.30
9118;DHT22;4594;50.994;7.126;2023-11-18T01:36:35;6.20;58.40
9118;DHT22;4594;50.994;7.126;2023-11-18T01:39:00;6.20;58.60
9118;DHT22;4594;50.994;7.126;2023-11-18T01:41:26;6.20;58.70
9118;DHT22;4594;50.994;7.126;2023-11-18T01:43:52;6.20;58.80
9118;DHT22;4594;50.994;7.126;2023-11-18T01:46:19;6.20;58.90
9118;DHT22;4594;50.994;7.126;2023-11-18T01:48:47;6.20;59.00
9118;DHT22;4594;50.994;7.126;2023-11-18T01:51:13;6.20;59.10
9118;DHT22;4594;50.994;7.126;2023-11-18T01:53:40;6.30;59.20
9118;DHT22;4594;50.994;7.126;2023-11-18T01:56:09;6.30;59.30
9118;DHT22;4594;50.994;7.126;2023-11-18T01:58:37;6.30;59.30
9118;DHT22;4594;50.994;7.126;2023-11-18T02:01:04;6.30;59.30
9118;DHT22;4594;50.994;7.126;2023-11-18T02:03:36;6.40;59.40
9118;DHT22;4594;50.994;7.126;2023-11-18T02:06:04;6.40;59.30
9118;DHT22;4594;50.994;7.126;2023-11-18T02:08:33;6.40;59.50
9118;DHT22;4594;50.994;7.126;2023-11-18T02:11:10;6.40;59.50
9118;DHT22;4594;50.994;7.126;2023-11-18T02:13:46;6.40;59.30
9118;DHT22;4594;50.994;7.126;2023-11-18T02:16:14;6.40;59.40
9118;DHT22;4594;50.994;7.126;2023-11-18T02:18:42;6.50;59.60
9118;DHT22;4594;50.994;7.126;2023-11-18T02:21:10;6.50;59.70
9118;DHT22;4594;50.994;7.126;2023-11-18T02:23:37;6.50;59.50
9118;DHT22;4594;50.994;7.126;2023-11-18T02:26:04;6.50;59.60
9118;DHT22;4594;50.994;7.126;2023-11-18T02:28:31;6.50;59.70
9118;DHT22;4594;50.994;7.126;2023-11-18T02:31:05;6.60;59.80
9118;DHT22;4594;50.994;7.126;2023-11-18T02:33:47;6.60;59.70
9118;DHT22;4594;50.994;7.126;2023-11-18T02:36:36;6.60;59.70
9118;DHT22;4594;50.994;7.126;2023-11-18T02:39:12;6.60;59.40
9118;DHT22;4594;50.994;7.126;2023-11-18T02:42:01;6.70;59.70
9118;DHT22;4594;50.994;7.126;2023-11-18T02:44:30;6.70;59.80
9118;DHT22;4594;50.994;7.126;2023-11-18T02:46:58;6.70;59.90
9118;DHT22;4594;50.994;7.126;2023-11-18T02:49:24;6.70;59.90
9118;DHT22;4594;50.994;7.126;2023-11-18T02:51:50;6.70;59.90
9118;DHT22;4594;50.994;7.126;2023-11-18T02:54:15;6.70;59.90
9118;DHT22;4594;50.994;7.126;2023-11-18T02:56:41;6.70;59.80
9118;DHT22;4594;50.994;7.126;2023-11-18T02:59:07;6.70;59.60
9118;DHT22;4594;50.994;7.126;2023-11-18T03:01:36;6.80;59.70
9118;DHT22;4594;50.994;7.126;2023-11-18T03:04:04;6.80;59.50
9118;DHT22;4594;50.994;7.126;2023-11-18T03:06:30;6.80;59.70
9118;DHT22;4594;50.994;7.126;2023-11-18T03:08:58;6.80;59.70
9118;DHT22;4594;50.994;7.126;2023-11-18T03:11:24;6.80;59.80
9118;DHT22;4594;50.994;7.126;2023-11-18T03:13:49;6.80;59.60
9118;DHT22;4594;50.994;7.126;2023-11-18T03:16:15;6.80;59.70
9118;DHT22;4594;50.994;7.126;2023-11-18T03:18:42;6.80;59.70
9118;DHT22;4594;50.994;7.126;2023-11-18T03:21:12;6.80;59.70
9118;DHT22;4594;50.994;7.126;2023-11-18T03:23:39;6.90;59.60
9118;DHT22;4594;50.994;7.126;2023-11-18T03:26:08;6.90;59.80
9118;DHT22;4594;50.994;7.126;2023-11-18T03:28:35;6.90;59.80
9118;DHT22;4594;50.994;7.126;2023-11-18T03:31:05;6.90;59.80
9118;DHT22;4594;50.994;7.126;2023-11-18T03:33:31;6.90;59.50
9118;DHT22;4594;50.994;7.126;2023-11-18T03:35:57;6.90;59.80
9118;DHT22;4594;50.994;7.126;2023-11-18T03:38:23;7.10;59.90
9118;DHT22;4594;50.994;7.126;2023-11-18T03:40:50;6.90;59.70
9118;DHT22;4594;50.994;7.126;2023-11-18T03:43:17;6.90;60.20
9118;DHT22;4594;50.994;7.126;2023-11-18T03:45:43;7.00;59.80
9118;DHT22;4594;50.994;7.126;2023-11-18T03:48:09;7.00;59.70
9118;DHT22;4594;50.994;7.126;2023-11-18T03:50:40;7.00;59.60
9118;DHT22;4594;50.994;7.126;2023-11-18T03:53:06;7.00;59.50
9118;DHT22;4594;50.994;7.126;2023-11-18T03:55:32;7.00;59.50
9118;DHT22;4594;50.994;7.126;2023-11-18T03:57:59;7.00;59.40
9118;DHT22;4594;50.994;7.126;2023-11-18T04:00:25;7.00;59.50
9118;DHT22;4594;50.994;7.126;2023-11-18T04:02:58;7.00;59.60
9118;DHT22;4594;50.994;7.126;2023-11-18T04:05:25;7.00;59.50
9118;DHT22;4594;50.994;7.126;2023-11-18T04:07:50;7.00;59.80
9118;DHT22;4594;50.994;7.126;2023-11-18T04:10:17;7.00;59.80
9118;DHT22;4594;50.994;7.126;2023-11-18T04:12:44;7.20;60.10
9118;DHT22;4594;50.994;7.126;2023-11-18T04:15:14;7.00;59.80
9118;DHT22;4594;50.994;7.126;2023-11-18T04:17:41;7.10;59.80
9118;DHT22;4594;50.994;7.126;2023-11-18T04:20:09;7.10;59.80
9118;DHT22;4594;50.994;7.126;2023-11-18T04:22:40;6.40;59.20
9118;DHT22;4594;50.994;7.126;2023-11-18T04:25:11;7.10;59.40
9118;DHT22;4594;50.994;7.126;2023-11-18T04:27:38;7.10;59.50
9118;DHT22;4594;50.994;7.126;2023-11-18T04:30:04;7.10;59.60
9118;DHT22;4594;50.994;7.126;2023-11-18T04:32:30;7.10;59.60
9118;DHT22;4594;50.994;7.126;2023-11-18T04:34:59;7.10;59.50
9118;DHT22;4594;50.994;7.126;2023-11-18T04:37:33;7.10;59.40
9118;DHT22;4594;50.994;7.126;2023-11-18T04:40:00;7.10;59.30
9118;DHT22;4594;50.994;7.126;2023-11-18T04:42:26;7.10;59.10
9118;DHT22;4594;50.994;7.126;2023-11-18T04:44:58;7.10;59.00
9118;DHT22;4594;50.994;7.126;2023-11-18T04:47:23;7.00;58.80
9118;DHT22;4594;50.994;7.126;2023-11-18T04:49:50;7.00;58.60
9118;DHT22;4594;50.994;7.126;2023-11-18T04:52:17;7.00;58.60
9118;DHT22;4594;50.994;7.126;2023-11-18T04:54:43;7.00;58.60
9118;DHT22;4594;50.994;7.126;2023-11-18T04:57:09;6.90;58.50
9118;DHT22;4594;50.994;7.126;2023-11-18T04:59:35;6.90;58.60
9118;DHT22;4594;50.994;7.126;2023-11-18T05:02:01;6.90;58.80
9118;DHT22;4594;50.994;7.126;2023-11-18T05:04:28;6.90;58.70
9118;DHT22;4594;50.994;7.126;2023-11-18T05:06:53;6.90;58.80
9118;DHT22;4594;50.994;7.126;2023-11-18T05:09:19;6.90;58.80
9118;DHT22;4594;50.994;7.126;2023-11-18T05:11:46;6.80;58.70
9118;DHT22;4594;50.994;7.126;2023-11-18T05:14:11;6.90;58.80
9118;DHT22;4594;50.994;7.126;2023-11-18T05:16:37;6.80;58.70
9118;DHT22;4594;50.994;7.126;2023-11-18T05:19:04;6.80;58.70
9118;DHT22;4594;50.994;7.126;2023-11-18T05:21:30;6.80;58.60
9118;DHT22;4594;50.994;7.126;2023-11-18T05:23:56;6.80;58.60
9118;DHT22;4594;50.994;7.126;2023-11-18T05:26:22;6.70;58.60
9118;DHT22;4594;50.994;7.126;2023-11-18T05:28:48;6.70;58.70
9118;DHT22;4594;50.994;7.126;2023-11-18T05:31:15;6.70;58.60
9118;DHT22;4594;50.994;7.126;2023-11-18T05:33:41;6.70;58.60
9118;DHT22;4594;50.994;7.126;2023-11-18T05:36:07;6.70;58.70
9118;DHT22;4594;50.994;7.126;2023-11-18T05:38:33;6.70;58.60
9118;DHT22;4594;50.994;7.126;2023-11-18T05:41:00;6.70;58.60
9118;DHT22;4594;50.994;7.126;2023-11-18T05:43:31;6.70;58.60
9118;DHT22;4594;50.994;7.126;2023-11-18T05:46:06;6.70;58.50
9118;DHT22;4594;50.994;7.126;2023-11-18T05:48:50;6.60;58.60
9118;DHT22;4594;50.994;7.126;2023-11-18T05:51:20;6.60;58.80
9118;DHT22;4594;50.994;7.126;2023-11-18T05:53:47;6.70;58.80
9118;DHT22;4594;50.994;7.126;2023-11-18T05:56:14;6.60;59.20
9118;DHT22;4594;50.994;7.126;2023-11-18T05:58:42;6.70;59.50
9118;DHT22;4594;50.994;7.126;2023-11-18T06:01:08;6.70;59.70
9118;DHT22;4594;50.994;7.126;2023-11-18T06:03:34;6.70;59.80
9118;DHT22;4594;50.994;7.126;2023-11-18T06:06:07;6.70;59.90
9118;DHT22;4594;50.994;7.126;2023-11-18T06:08:35;6.80;60.10
9118;DHT22;4594;50.994;7.126;2023-11-18T06:11:06;6.80;60.20
9118;DHT22;4594;50.994;7.126;2023-11-18T06:13:39;6.80;60.30
9118;DHT22;4594;50.994;7.126;2023-11-18T06:16:09;6.80;60.30
9118;DHT22;4594;50.994;7.126;2023-11-18T06:18:43;6.90;60.40
9118;DHT22;4594;50.994;7.126;2023-11-18T06:21:20;6.90;60.40
9118;DHT22;4594;50.994;7.126;2023-11-18T06:23:50;6.90;60.10
9118;DHT22;4594;50.994;7.126;2023-11-18T06:26:16;7.00;60.50
9118;DHT22;4594;50.994;7.126;2023-11-18T06:28:44;7.00;60.50
9118;DHT22;4594;50.994;7.126;2023-11-18T06:31:11;7.00;60.60
9118;DHT22;4594;50.994;7.126;2023-11-18T06:33:47;7.00;60.50
9118;DHT22;4594;50.994;7.126;2023-11-18T06:38:46;7.10;60.30
9118;DHT22;4594;50.994;7.126;2023-11-18T06:41:15;7.10;60.50
9118;DHT22;4594;50.994;7.126;2023-11-18T06:43:44;7.20;60.40
9118;DHT22;4594;50.994;7.126;2023-11-18T06:46:20;7.20;60.30
9118;DHT22;4594;50.994;7.126;2023-11-18T06:48:51;7.20;60.00
9118;DHT22;4594;50.994;7.126;2023-11-18T06:51:21;7.20;60.00
9118;DHT22;4594;50.994;7.126;2023-11-18T06:53:50;7.20;60.20
9118;DHT22;4594;50.994;7.126;2023-11-18T06:56:17;7.30;60.20
9118;DHT22;4594;50.994;7.126;2023-11-18T06:58:44;7.30;60.20
9118;DHT22;4594;50.994;7.126;2023-11-18T07:01:13;7.30;60.30
9118;DHT22;4594;50.994;7.126;2023-11-18T07:03:41;7.30;60.00
9118;DHT22;4594;50.994;7.126;2023-11-18T07:06:08;7.30;60.20
9118;DHT22;4594;50.994;7.126;2023-11-18T07:08:35;7.30;60.40
9118;DHT22;4594;50.994;7.126;2023-11-18T07:11:02;7.40;60.90
9118;DHT22;4594;50.994;7.126;2023-11-18T07:13:29;7.40;61.30
9118;DHT22;4594;50.994;7.126;2023-11-18T07:15:55;7.40;61.60
9118;DHT22;4594;50.994;7.126;2023-11-18T07:18:23;7.50;61.90
9118;DHT22;4594;50.994;7.126;2023-11-18T07:20:49;7.50;61.90
9118;DHT22;4594;50.994;7.126;2023-11-18T07:23:19;7.60;62.10
9118;DHT22;4594;50.994;7.126;2023-11-18T07:25:45;7.70;62.10
9118;DHT22;4594;50.994;7.126;2023-11-18T07:28:14;7.70;62.10
9118;DHT22;4594;50.994;7.126;2023-11-18T07:30:43;7.70;61.60
9118;DHT22;4594;50.994;7.126;2023-11-18T07:33:16;7.80;62.10
9118;DHT22;4594;50.994;7.126;2023-11-18T07:35:46;7.80;61.90
9118;DHT22;4594;50.994;7.126;2023-11-18T07:38:16;7.90;61.60
9118;DHT22;4594;50.994;7.126;2023-11-18T07:40:45;7.90;62.00
9118;DHT22;4594;50.994;7.126;2023-11-18T07:43:14;7.90;61.80
9118;DHT22;4594;50.994;7.126;2023-11-18T07:45:41;8.00;61.40
9118;DHT22;4594;50.994;7.126;2023-11-18T07:48:11;8.00;61.80
9118;DHT22;4594;50.994;7.126;2023-11-18T07:50:42;8.00;61.20
9118;DHT22;4594;50.994;7.126;2023-11-18T07:53:13;8.10;61.70
9118;DHT22;4594;50.994;7.126;2023-11-18T07:55:39;8.10;61.70
9118;DHT22;4594;50.994;7.126;2023-11-18T07:58:06;8.20;61.80
9118;DHT22;4594;50.994;7.126;2023-11-18T08:00:43;8.20;61.80
9118;DHT22;4594;50.994;7.126;2023-11-18T08:03:12;8.20;61.10
9118;DHT22;4594;50.994;7.126;2023-11-18T08:05:39;8.20;62.00
9118;DHT22;4594;50.994;7.126;2023-11-18T08:08:12;8.30;62.10
9118;DHT22;4594;50.994;7.126;2023-11-18T08:10:40;8.30;62.20
9118;DHT22;4594;50.994;7.126;2023-11-18T08:13:07;8.40;62.20
9118;DHT22;4594;50.994;7.126;2023-11-18T08:15:34;8.40;62.20
9118;DHT22;4594;50.994;7.126;2023-11-18T08:18:03;8.40;62.10
9118;DHT22;4594;50.994;7.126;2023-11-18T08:20:29;8.50;62.20
9118;DHT22;4594;50.994;7.126;2023-11-18T08:22:56;8.50;62.20
9118;DHT22;4594;50.994;7.126;2023-11-18T08:25:21;8.50;62.10
9118;DHT22;4594;50.994;7.126;2023-11-18T08:27:47;8.50;61.90
9118;DHT22;4594;50.994;7.126;2023-11-18T08:30:14;8.70;62.10
9118;DHT22;4594;50.994;7.126;2023-11-18T08:32:42;8.60;61.90
9118;DHT22;4594;50.994;7.126;2023-11-18T08:35:11;8.80;62.20
9118;DHT22;4594;50.994;7.126;2023-11-18T08:37:40;8.60;62.00
9118;DHT22;4594;50.994;7.126;2023-11-18T08:40:08;8.70;61.90
9118;DHT22;4594;50.994;7.126;2023-11-18T08:42:48;8.70;61.90
9118;DHT22;4594;50.994;7.126;2023-11-18T08:45:20;8.70;61.00
9118;DHT22;4594;50.994;7.126;2023-11-18T08:47:47;8.80;62.00
9118;DHT22;4594;50.994;7.126;2023-11-18T08:50:15;8.80;62.20
9118;DHT22;4594;50.994;7.126;2023-11-18T08:52:42;8.80;62.40
9118;DHT22;4594;50.994;7.126;2023-11-18T08:55:12;8.90;62.60
9118;DHT22;4594;50.994;7.126;2023-11-18T08:57:51;8.90;62.90
9118;DHT22;4594;50.994;7.126;2023-11-18T09:00:30;8.90;62.90
9118;DHT22;4594;50.994;7.126;2023-11-18T09:03:26;8.90;62.70
9118;DHT22;4594;50.994;7.126;2023-11-18T09:06:00;9.00;61.90
9118;DHT22;4594;50.994;7.126;2023-11-18T09:08:46;9.00;62.90
9118;DHT22;4594;50.994;7.126;2023-11-18T09:11:18;9.10;63.00
9118;DHT22;4594;50.994;7.126;2023-11-18T09:13:46;9.10;62.90
9118;DHT22;4594;50.994;7.126;2023-11-18T09:16:15;9.20;63.00
9118;DHT22;4594;50.994;7.126;2023-11-18T09:18:43;9.20;63.20
9118;DHT22;4594;50.994;7.126;2023-11-18T09:21:12;9.30;63.20
9118;DHT22;4594;50.994;7.126;2023-11-18T09:23:45;9.30;63.40
9118;DHT22;4594;50.994;7.126;2023-11-18T09:26:13;9.30;63.60
9118;DHT22;4594;50.994;7.126;2023-11-18T09:28:40;9.40;63.60
9118;DHT22;4594;50.994;7.126;2023-11-18T09:31:06;9.40;63.70
9118;DHT22;4594;50.994;7.126;2023-11-18T09:33:37;9.50;63.80
9118;DHT22;4594;50.994;7.126;2023-11-18T09:36:08;9.60;63.90
9118;DHT22;4594;50.994;7.126;2023-11-18T09:38:38;9.60;63.10
9118;DHT22;4594;50.994;7.126;2023-11-18T09:41:09;9.70;63.70
9118;DHT22;4594;50.994;7.126;2023-11-18T09:43:41;9.70;63.60
9118;DHT22;4594;50.994;7.126;2023-11-18T09:46:11;9.80;62.90
9118;DHT22;4594;50.994;7.126;2023-11-18T09:48:51;9.80;63.40
9118;DHT22;4594;50.994;7.126;2023-11-18T09:51:42;9.90;63.30
9118;DHT22;4594;50.994;7.126;2023-11-18T09:57:07;9.90;61.80
9118;DHT22;4594;50.994;7.126;2023-11-18T09:59:42;10.00;60.10
9118;DHT22;4594;50.994;7.126;2023-11-18T10:02:19;10.00;61.80
9118;DHT22;4594;50.994;7.126;2023-11-18T10:04:48;10.00;61.70
9118;DHT22;4594;50.994;7.126;2023-11-18T10:07:24;10.10;61.50
9118;DHT22;4594;50.994;7.126;2023-11-18T10:09:54;10.10;61.40
9118;DHT22;4594;50.994;7.126;2023-11-18T10:12:23;10.10;61.30
9118;DHT22;4594;50.994;7.126;2023-11-18T10:14:49;10.10;61.80
9118;DHT22;4594;50.994;7.126;2023-11-18T10:17:18;10.20;61.80
9118;DHT22;4594;50.994;7.126;2023-11-18T10:19:57;10.20;61.90
9118;DHT22;4594;50.994;7.126;2023-11-18T10:22:38;10.20;60.10
9118;DHT22;4594;50.994;7.126;2023-11-18T10:25:06;10.20;61.50
9118;DHT22;4594;50.994;7.126;2023-11-18T10:27:32;10.30;61.60
9118;DHT22;4594;50.994;7.126;2023-11-18T10:30:06;10.30;61.60
9118;DHT22;4594;50.994;7.126;2023-11-18T10:32:56;10.30;60.50
9118;DHT22;4594;50.994;7.126;2023-11-18T10:35:31;10.30;61.70
9118;DHT22;4594;50.994;7.126;2023-11-18T10:38:02;10.30;61.50
9118;DHT22;4594;50.994;7.126;2023-11-18T10:40:34;10.40;61.00
9118;DHT22;4594;50.994;7.126;2023-11-18T10:43:03;10.40;60.90
9118;DHT22;4594;50.994;7.126;2023-11-18T10:45:35;10.40;61.20
9118;DHT22;4594;50.994;7.126;2023-11-18T10:48:07;10.40;61.40
9118;DHT22;4594;50.994;7.126;2023-11-18T10:50:34;10.40;60.60
9118;DHT22;4594;50.994;7.126;2023-11-18T10:53:00;10.50;61.40
9118;DHT22;4594;50.994;7.126;2023-11-18T10:55:40;10.50;61.40
9118;DHT22;4594;50.994;7.126;2023-11-18T10:58:06;10.50;59.70
9118;DHT22;4594;50.994;7.126;2023-11-18T11:00:51;10.70;61.30
9118;DHT22;4594;50.994;7.126;2023-11-18T11:03:21;10.60;59.20
9118;DHT22;4594;50.994;7.126;2023-11-18T11:05:51;10.60;61.20
9118;DHT22;4594;50.994;7.126;2023-11-18T11:08:19;10.50;60.80
9118;DHT22;4594;50.994;7.126;2023-11-18T11:10:46;10.60;60.90
9118;DHT22;4594;50.994;7.126;2023-11-18T11:13:17;10.60;60.20
9118;DHT22;4594;50.994;7.126;2023-11-18T11:15:43;10.60;59.90
9118;DHT22;4594;50.994;7.126;2023-11-18T11:18:12;10.50;60.00
9118;DHT22;4594;50.994;7.126;2023-11-18T11:21:07;10.50;59.80
9118;DHT22;4594;50.994;7.126;2023-11-18T11:27:04;10.50;59.80
9118;DHT22;4594;50.994;7.126;2023-11-18T11:29:36;10.50;58.90
9118;DHT22;4594;50.994;7.126;2023-11-18T11:32:26;10.60;58.80
9118;DHT22;4594;50.994;7.126;2023-11-18T11:35:01;10.50;59.00
9118;DHT22;4594;50.994;7.126;2023-11-18T11:37:33;10.70;59.70
9118;DHT22;4594;50.994;7.126;2023-11-18T11:40:02;10.50;60.20
9118;DHT22;4594;50.994;7.126;2023-11-18T11:42:35;10.50;60.50
9118;DHT22;4594;50.994;7.126;2023-11-18T11:45:01;10.50;60.50
9118;DHT22;4594;50.994;7.126;2023-11-18T11:47:28;10.50;60.50
9118;DHT22;4594;50.994;7.126;2023-11-18T11:50:11;10.50;60.60
9118;DHT22;4594;50.994;7.126;2023-11-18T11:52:50;10.50;59.90
9118;DHT22;4594;50.994;7.126;2023-11-18T11:55:33;10.50;60.00
9118;DHT22;4594;50.994;7.126;2023-11-18T11:58:04;10.50;59.80
9118;DHT22;4594;50.994;7.126;2023-11-18T12:00:31;10.50;60.90
9118;DHT22;4594;50.994;7.126;2023-11-18T12:03:01;10.50;61.00
9118;DHT22;4594;50.994;7.126;2023-11-18T12:05:30;10.50;61.00
9118;DHT22;4594;50.994;7.126;2023-11-18T12:07:59;10.40;61.20
9118;DHT22;4594;50.994;7.126;2023-11-18T12:10:30;10.50;61.70
9118;DHT22;4594;50.994;7.126;2023-11-18T12:13:09;10.70;61.20
9118;DHT22;4594;50.994;7.126;2023-11-18T12:18:19;10.50;60.80
9118;DHT22;4594;50.994;7.126;2023-11-18T12:20:47;10.50;61.90
9118;DHT22;4594;50.994;7.126;2023-11-18T12:23:14;10.50;62.00
9118;DHT22;4594;50.994;7.126;2023-11-18T12:25:44;10.50;61.60
9118;DHT22;4594;50.994;7.126;2023-11-18T12:28:26;10.60;61.90
9118;DHT22;4594;50.994;7.126;2023-11-18T12:30:56;10.60;61.70
9118;DHT22;4594;50.994;7.126;2023-11-18T12:39:31;10.60;61.20
9118;DHT22;4594;50.994;7.126;2023-11-18T12:42:55;10.60;59.30
9118;DHT22;4594;50.994;7.126;2023-11-18T12:45:35;10.60;59.10
9118;DHT22;4594;50.994;7.126;2023-11-18T12:48:13;10.60;60.60
9118;DHT22;4594;50.994;7.126;2023-11-18T12:50:41;10.60;60.70
9118;DHT22;4594;50.994;7.126;2023-11-18T12:53:10;10.60;61.00
9118;DHT22;4594;50.994;7.126;2023-11-18T12:55:36;10.50;60.90
9118;DHT22;4594;50.994;7.126;2023-11-18T12:58:04;10.50;61.00
9118;DHT22;4594;50.994;7.126;2023-11-18T13:00:31;10.50;61.10
9118;DHT22;4594;50.994;7.126;2023-11-18T13:03:00;10.80;61.70
9118;DHT22;4594;50.994;7.126;2023-11-18T13:05:25;10.50;61.40
9118;DHT22;4594;50.994;7.126;2023-11-18T13:07:56;10.50;61.20
9118;DHT22;4594;50.994;7.126;2023-11-18T13:10:24;10.50;60.90
9118;DHT22;4594;50.994;7.126;2023-11-18T13:12:52;10.50;60.70
9118;DHT22;4594;50.994;7.126;2023-11-18T13:15:19;10.50;60.70
9118;DHT22;4594;50.994;7.126;2023-11-18T13:18:02;10.40;60.50
9118;DHT22;4594;50.994;7.126;2023-11-18T13:20:32;10.50;59.10
9118;DHT22;4594;50.994;7.126;2023-11-18T13:23:03;10.40;60.80
9118;DHT22;4594;50.994;7.126;2023-11-18T13:25:37;10.40;60.90
9118;DHT22;4594;50.994;7.126;2023-11-18T13:28:07;10.40;60.50
9118;DHT22;4594;50.994;7.126;2023-11-18T13:30:35;10.40;61.10
9118;DHT22;4594;50.994;7.126;2023-11-18T13:33:01;10.40;60.90
9118;DHT22;4594;50.994;7.126;2023-11-18T13:35:27;10.40;60.80
9118;DHT22;4594;50.994;7.126;2023-11-18T13:37:54;10.40;60.60
9118;DHT22;4594;50.994;7.126;2023-11-18T13:40:20;10.40;60.20
9118;DHT22;4594;50.994;7.126;2023-11-18T13:42:46;10.40;60.60
9118;DHT22;4594;50.994;7.126;2023-11-18T13:45:13;10.30;60.50
9118;DHT22;4594;50.994;7.126;2023-11-18T13:47:51;10.30;60.30
9118;DHT22;4594;50.994;7.126;2023-11-18T13:50:20;10.30;60.20
9118;DHT22;4594;50.994;7.126;2023-11-18T13:52:47;10.80;61.90
9118;DHT22;4594;50.994;7.126;2023-11-18T13:55:15;10.30;61.40
9118;DHT22;4594;50.994;7.126;2023-11-18T13:57:57;10.30;60.50
9118;DHT22;4594;50.994;7.126;2023-11-18T14:00:25;10.30;60.90
9118;DHT22;4594;50.994;7.126;2023-11-18T14:02:54;10.30;60.60
9118;DHT22;4594;50.994;7.126;2023-11-18T14:05:22;10.20;60.70
9118;DHT22;4594;50.994;7.126;2023-11-18T14:07:53;10.20;60.60
9118;DHT22;4594;50.994;7.126;2023-11-18T14:10:25;10.20;60.50
9118;DHT22;4594;50.994;7.126;2023-11-18T14:13:05;10.20;60.60
9118;DHT22;4594;50.994;7.126;2023-11-18T14:15:42;10.20;59.50
9118;DHT22;4594;50.994;7.126;2023-11-18T14:18:10;10.20;61.10
9118;DHT22;4594;50.994;7.126;2023-11-18T14:20:36;10.20;61.10
9118;DHT22;4594;50.994;7.126;2023-11-18T14:23:05;10.20;61.20
9118;DHT22;4594;50.994;7.126;2023-11-18T14:25:34;10.20;60.70
9118;DHT22;4594;50.994;7.126;2023-11-18T14:28:00;10.20;60.90
9118;DHT22;4594;50.994;7.126;2023-11-18T14:30:27;10.20;61.30
9118;DHT22;4594;50.994;7.126;2023-11-18T14:32:53;10.20;61.50
9118;DHT22;4594;50.994;7.126;2023-11-18T14:35:19;10.20;61.50
9118;DHT22;4594;50.994;7.126;2023-11-18T14:37:46;10.20;61.80
9118;DHT22;4594;50.994;7.126;2023-11-18T14:40:15;10.20;61.90
9118;DHT22;4594;50.994;7.126;2023-11-18T14:42:43;10.20;61.10
9118;DHT22;4594;50.994;7.126;2023-11-18T14:45:12;10.20;61.40
9118;DHT22;4594;50.994;7.126;2023-11-18T14:47:42;10.20;61.80
9118;DHT22;4594;50.994;7.126;2023-11-18T14:50:14;10.20;61.50
9118;DHT22;4594;50.994;7.126;2023-11-18T14:52:45;10.20;61.90
9118;DHT22;4594;50.994;7.126;2023-11-18T14:55:11;10.20;61.70
9118;DHT22;4594;50.994;7.126;2023-11-18T14:57:43;10.30;61.80
9118;DHT22;4594;50.994;7.126;2023-11-18T15:00:11;10.20;61.80
9118;DHT22;4594;50.994;7.126;2023-11-18T15:02:54;10.20;61.40
9118;DHT22;4594;50.994;7.126;2023-11-18T15:05:23;10.50;61.60
9118;DHT22;4594;50.994;7.126;2023-11-18T15:07:53;10.20;61.50
9118;DHT22;4594;50.994;7.126;2023-11-18T15:10:24;10.20;61.00
9118;DHT22;4594;50.994;7.126;2023-11-18T15:12:52;10.10;61.20
9118;DHT22;4594;50.994;7.126;2023-11-18T15:15:21;10.10;61.60
9118;DHT22;4594;50.994;7.126;2023-11-18T15:18:01;10.10;61.50
9118;DHT22;4594;50.994;7.126;2023-11-18T15:20:45;10.10;61.50
9118;DHT22;4594;50.994;7.126;2023-11-18T15:23:12;10.10;61.30
9118;DHT22;4594;50.994;7.126;2023-11-18T15:25:39;10.10;61.40
9118;DHT22;4594;50.994;7.126;2023-11-18T15:28:05;10.00;61.60
9118;DHT22;4594;50.994;7.126;2023-11-18T15:30:38;10.00;61.80
9118;DHT22;4594;50.994;7.126;2023-11-18T15:33:08;10.00;61.90
9118;DHT22;4594;50.994;7.126;2023-11-18T15:35:37;10.00;62.20
9118;DHT22;4594;50.994;7.126;2023-11-18T15:38:04;10.10;62.40
9118;DHT22;4594;50.994;7.126;2023-11-18T15:40:36;10.00;62.70
9118;DHT22;4594;50.994;7.126;2023-11-18T15:43:05;9.90;63.80
9118;DHT22;4594;50.994;7.126;2023-11-18T15:45:31;9.90;63.70
9118;DHT22;4594;50.994;7.126;2023-11-18T15:48:00;9.90;64.20
9118;DHT22;4594;50.994;7.126;2023-11-18T15:50:30;9.90;64.40
9118;DHT22;4594;50.994;7.126;2023-11-18T15:52:57;9.80;64.30
9118;DHT22;4594;50.994;7.126;2023-11-18T15:55:23;9.80;64.40
9118;DHT22;4594;50.994;7.126;2023-11-18T15:57:51;9.80;64.70
9118;DHT22;4594;50.994;7.126;2023-11-18T16:00:22;9.80;64.80
9118;DHT22;4594;50.994;7.126;2023-11-18T16:02:56;9.80;65.00
9118;DHT22;4594;50.994;7.126;2023-11-18T16:05:24;9.80;65.10
9118;DHT22;4594;50.994;7.126;2023-11-18T16:07:54;9.80;65.10
9118;DHT22;4594;50.994;7.126;2023-11-18T16:10:21;9.80;65.40
9118;DHT22;4594;50.994;7.126;2023-11-18T16:15:19;9.70;65.50
9118;DHT22;4594;50.994;7.126;2023-11-18T16:17:46;9.70;65.70
9118;DHT22;4594;50.994;7.126;2023-11-18T16:20:12;9.70;65.90
9118;DHT22;4594;50.994;7.126;2023-11-18T16:22:42;9.70;66.10
9118;DHT22;4594;50.994;7.126;2023-11-18T16:25:08;9.70;66.30
9118;DHT22;4594;50.994;7.126;2023-11-18T16:27:35;9.70;66.50
9118;DHT22;4594;50.994;7.126;2023-11-18T16:30:02;9.70;66.50
9118;DHT22;4594;50.994;7.126;2023-11-18T16:32:29;9.70;66.70
9118;DHT22;4594;50.994;7.126;2023-11-18T16:34:55;9.70;66.80
9118;DHT22;4594;50.994;7.126;2023-11-18T16:37:21;9.70;66.80
9118;DHT22;4594;50.994;7.126;2023-11-18T16:39:47;9.70;66.80
9118;DHT22;4594;50.994;7.126;2023-11-18T16:42:12;9.70;66.70
9118;DHT22;4594;50.994;7.126;2023-11-18T16:44:38;9.70;66.80
9118;DHT22;4594;50.994;7.126;2023-11-18T16:47:04;9.70;66.90